Time;durP1;ratioP1;P1;durP2;ratioP2;P2;SDS_P1;SDS_P2;PMS_P1;PMS_P2;Temp;Humidity;BMP_temperature;BMP_pressure;BME280_temperature;BME280_humidity;BME280_pressure;Samples;Min_cycle;Max_cycle;Signal;HPM_P1;HPM_P2
2023/07/11 00:01:43;;;;;;;12.33;8.93;;;;;;;20.01;66.43;100302.28;30863089;28;117142;-69
2023/07/11 00:16:44;;;;;;;9.47;8.43;;;;;;;19.65;67.51;100309.41;30861656;28;100061;-69
2023/07/11 00:31:44;;;;;;;9.57;6.63;;;;;;;19.46;68.31;100325.63;30860861;28;97229;-70
2023/07/11 00:46:44;;;;;;;8.45;7.15;;;;;;;19.33;68.75;100341.97;30859855;28;97182;-70
2023/07/11 01:02:03;;;;;;;8.88;7.10;;;;;;;19.24;69.26;100350.38;30858624;28;97011;-69
2023/07/11 01:17:22;;;;;;;11.10;7.50;;;;;;;19.03;69.71;100353.53;30856846;28;96782;-69
2023/07/11 01:32:23;;;;;;;9.93;7.40;;;;;;;18.84;70.08;100364.22;30854186;28;97430;-70
2023/07/11 01:47:23;;;;;;;11.23;8.25;;;;;;;18.80;70.49;100357.63;30855031;28;100752;-70
2023/07/11 02:02:23;;;;;;;11.27;7.05;;;;;;;18.58;70.68;100352.59;30853758;28;96729;-70
2023/07/11 02:17:24;;;;;;;12.05;7.60;;;;;;;18.41;71.06;100362.25;30852103;28;110181;-69
2023/07/11 02:32:24;;;;;;;8.93;7.22;;;;;;;18.23;71.57;100354.91;30851133;28;108725;-70
2023/07/11 02:47:25;;;;;;;10.88;7.45;;;;;;;18.09;71.85;100364.94;30870139;28;109187;-69
2023/07/11 03:02:25;;;;;;;11.18;7.55;;;;;;;18.06;72.03;100374.28;30868407;28;110875;-69
2023/07/11 03:17:25;;;;;;;10.15;7.75;;;;;;;18.06;72.55;100386.97;30866637;28;113308;-70
2023/07/11 03:32:25;;;;;;;11.80;7.45;;;;;;;18.12;72.57;100396.03;30864257;28;118414;-69
2023/07/11 03:47:26;;;;;;;10.57;8.32;;;;;;;18.17;72.67;100402.44;30862753;28;107851;-69
2023/07/11 04:02:26;;;;;;;8.57;6.88;;;;;;;18.30;72.60;100412.31;30861848;28;96657;-70
2023/07/11 04:17:27;;;;;;;13.30;7.13;;;;;;;18.52;72.45;100429.03;30859055;28;106969;-70
2023/07/11 04:32:28;;;;;;;12.03;7.73;;;;;;;18.76;71.99;100422.00;30858031;28;97130;-70
2023/07/11 04:47:28;;;;;;;7.10;6.18;;;;;;;19.09;71.22;100434.44;30856717;28;96850;-70
2023/07/11 05:02:29;;;;;;;9.13;6.22;;;;;;;19.34;70.79;100447.13;30846318;28;97046;-72
2023/07/11 05:17:29;;;;;;;11.65;6.40;;;;;;;19.71;69.76;100449.88;30829243;28;97478;-68
2023/07/11 05:32:29;;;;;;;5.68;4.55;;;;;;;20.14;68.43;100466.25;30833395;28;97144;-73
2023/07/11 05:47:30;;;;;;;9.03;4.10;;;;;;;20.53;66.94;100456.78;30827623;28;109413;-68
2023/07/11 06:02:30;;;;;;;5.68;4.15;;;;;;;21.11;65.60;100455.28;30830063;28;97302;-68
2023/07/11 06:17:31;;;;;;;6.50;4.67;;;;;;;21.45;64.21;100465.56;30847079;28;98576;-69
2023/07/11 06:32:31;;;;;;;7.27;3.40;;;;;;;22.36;62.78;100445.28;30846367;28;108719;-73
2023/07/11 06:47:33;;;;;;;3.83;3.28;;;;;;;22.97;60.01;100449.06;30847348;28;97308;-72
2023/07/11 07:02:33;;;;;;;7.93;3.60;;;;;;;23.71;57.27;100440.94;30853579;28;98211;-70
2023/07/11 07:17:33;;;;;;;9.68;4.63;;;;;;;24.07;54.71;100444.16;30859651;28;97442;-75
2023/07/11 07:32:35;;;;;;;5.47;2.85;;;;;;;24.58;52.44;100431.09;30878677;28;97847;-82
2023/07/11 07:47:36;;;;;;;5.23;3.57;;;;;;;25.31;49.52;100427.84;30869437;28;97303;-81
2023/07/11 08:02:39;;;;;;;4.65;2.90;;;;;;;25.83;47.13;100419.97;30873933;28;96709;-76
2023/07/11 08:17:45;;;;;;;3.30;2.03;;;;;;;26.61;44.04;100410.09;30860615;28;96784;-80
2023/07/11 08:32:46;;;;;;;8.40;4.37;;;;;;;26.79;40.89;100409.59;30858461;28;96837;-72
2023/07/11 08:48:05;;;;;;;6.65;3.85;;;;;;;28.00;39.51;100401.66;30869290;28;97094;-67
2023/07/11 09:03:16;;;;;;;3.07;1.90;;;;;;;29.46;35.83;100419.44;30856845;28;97019;-69
2023/07/11 09:18:25;;;;;;;4.50;1.93;;;;;;;30.48;31.40;100397.25;30860915;28;96988;-80
2023/07/11 09:33:39;;;;;;;4.40;1.90;;;;;;;31.33;29.47;100388.91;30860626;28;96723;-72
2023/07/11 09:48:41;;;;;;;5.57;1.50;;;;;;;31.29;27.45;100366.69;30852223;28;97563;-78
2023/07/11 10:03:45;;;;;;;3.03;1.43;;;;;;;32.62;26.70;100367.63;30857126;28;96978;-74
2023/07/11 10:18:45;;;;;;;3.57;1.10;;;;;;;32.79;25.49;100355.09;30851694;28;97272;-70
2023/07/11 10:34:24;;;;;;;2.90;1.20;;;;;;;32.38;25.26;100348.66;30854770;28;96805;-69
2023/07/11 10:49:43;;;;;;;4.63;1.23;;;;;;;33.63;24.61;100333.97;30836791;28;97857;-73
2023/07/11 11:05:07;;;;;;;3.20;1.40;;;;;;;33.72;23.76;100321.00;30867440;28;97320;-74
2023/07/11 11:20:34;;;;;;;2.50;1.60;;;;;;;32.37;24.65;100306.50;30872877;28;97274;-72
2023/07/11 11:35:37;;;;;;;3.73;1.60;;;;;;;31.80;26.17;100297.94;30864503;28;96760;-69
2023/07/11 11:50:39;;;;;;;4.03;1.60;;;;;;;31.79;25.47;100279.78;30870795;28;96835;-67
2023/07/11 12:05:47;;;;;;;2.60;1.50;;;;;;;31.73;25.85;100274.38;30861920;28;96774;-67
2023/07/11 12:21:25;;;;;;;3.37;1.60;;;;;;;31.18;25.92;100257.94;30858822;28;96853;-65
2023/07/11 12:36:32;;;;;;;4.03;1.70;;;;;;;31.87;25.35;100237.72;30925678;28;97714;-67
2023/07/11 12:51:37;;;;;;;2.80;1.80;;;;;;;32.22;25.62;100221.47;30977108;28;97511;-67
2023/07/11 13:06:38;;;;;;;4.77;1.80;;;;;;;31.26;25.51;100218.69;30974605;28;97521;-67
2023/07/11 13:21:39;;;;;;;4.60;1.73;;;;;;;31.92;24.90;100210.06;30975212;28;97115;-67
2023/07/11 13:36:43;;;;;;;3.33;1.80;;;;;;;30.38;27.08;100186.59;30975206;28;97154;-68
2023/07/11 13:51:43;;;;;;;3.60;1.60;;;;;;;30.36;26.86;100178.66;30975468;28;96757;-67
2023/07/11 14:06:43;;;;;;;4.28;1.75;;;;;;;29.84;26.85;100176.00;30902850;28;97787;-68
2023/07/11 14:21:44;;;;;;;3.75;2.03;;;;;;;29.20;27.56;100157.16;30847893;28;106774;-67
2023/07/11 14:36:44;;;;;;;3.25;1.75;;;;;;;29.92;26.94;100152.53;30858575;28;109936;-69
2023/07/11 14:51:46;;;;;;;3.63;1.77;;;;;;;29.82;26.78;100144.47;30854790;28;97100;-67
2023/07/11 15:06:47;;;;;;;2.10;1.43;;;;;;;29.98;26.21;100123.06;30799083;28;97332;-68
2023/07/11 15:22:14;;;;;;;3.40;1.83;;;;;;;30.34;25.94;100109.47;30815669;28;97493;-69
2023/07/11 15:37:15;;;;;;;6.43;1.87;;;;;;;30.39;26.02;100097.56;30826915;28;97337;-68
2023/07/11 15:52:16;;;;;;;3.40;2.10;;;;;;;29.81;26.28;100083.25;30849834;28;97442;-69
2023/07/11 16:07:19;;;;;;;4.13;1.70;;;;;;;29.59;26.84;100064.69;30848536;28;97287;-68
2023/07/11 16:22:21;;;;;;;2.63;1.70;;;;;;;29.88;26.82;100055.41;30848397;28;96761;-68
2023/07/11 16:37:22;;;;;;;4.47;2.17;;;;;;;29.65;27.40;100058.00;30847454;28;97378;-68
2023/07/11 16:52:22;;;;;;;5.22;2.25;;;;;;;29.52;27.68;100047.78;30846192;28;97189;-68
2023/07/11 17:07:28;;;;;;;3.95;2.33;;;;;;;29.27;28.18;100047.13;30840143;28;97133;-68
2023/07/11 17:22:29;;;;;;;4.13;2.30;;;;;;;28.95;29.02;100051.44;30853505;28;97629;-68
2023/07/11 17:37:31;;;;;;;4.47;2.28;;;;;;;28.54;29.90;100036.34;30759991;28;96847;-67
2023/07/11 17:52:32;;;;;;;3.40;2.30;;;;;;;28.30;30.16;100028.16;30720704;28;97146;-69
2023/07/11 18:07:35;;;;;;;4.50;2.33;;;;;;;27.87;30.80;100019.84;30779407;28;97867;-68
2023/07/11 18:22:35;;;;;;;5.73;2.97;;;;;;;27.39;33.00;100017.84;30862804;28;97357;-68
2023/07/11 18:37:36;;;;;;;8.93;2.80;;;;;;;26.84;33.83;100020.69;30860650;28;99229;-70
2023/07/11 18:52:36;;;;;;;4.70;2.60;;;;;;;26.33;34.88;100019.84;30858952;28;96738;-69
2023/07/11 19:07:37;;;;;;;5.78;3.70;;;;;;;25.70;36.20;100022.19;30852233;28;101686;-69
2023/07/11 19:22:38;;;;;;;8.48;3.40;;;;;;;25.27;37.46;100023.25;30864400;28;97256;-68
2023/07/11 19:37:43;;;;;;;7.03;3.33;;;;;;;24.93;38.20;100036.59;30860413;28;96860;-68
2023/07/11 19:52:43;;;;;;;5.40;3.00;;;;;;;24.66;38.86;100024.03;30861360;28;97683;-69
2023/07/11 20:07:44;;;;;;;7.60;3.20;;;;;;;24.27;40.09;100011.59;30753759;28;97769;-69
2023/07/11 20:22:44;;;;;;;4.72;3.20;;;;;;;23.76;41.47;99987.63;30728827;28;97518;-69
2023/07/11 20:37:44;;;;;;;5.28;3.03;;;;;;;23.47;41.64;99974.41;30726980;28;109131;-69
2023/07/11 20:52:46;;;;;;;3.72;2.70;;;;;;;22.53;43.66;99949.41;30728486;28;96840;-69
2023/07/11 21:07:47;;;;;;;5.10;2.57;;;;;;;21.97;45.29;99925.13;30726294;28;97408;-69
2023/07/11 21:22:47;;;;;;;5.38;2.42;;;;;;;21.91;45.81;99909.84;30724914;28;97405;-71
2023/07/11 21:37:48;;;;;;;6.47;2.80;;;;;;;21.79;46.20;99870.13;30724935;28;97221;-70
2023/07/11 21:52:48;;;;;;;5.55;2.88;;;;;;;21.71;46.82;99872.47;30722678;28;97093;-70
2023/07/11 22:07:49;;;;;;;5.33;2.83;;;;;;;21.52;47.02;99842.13;30830253;28;97443;-70
2023/07/11 22:22:50;;;;;;;9.93;3.00;;;;;;;20.93;47.84;99890.31;30852195;28;97239;-69
2023/07/11 22:37:54;;;;;;;4.78;2.95;;;;;;;20.63;49.16;99863.53;30852428;28;96814;-68
2023/07/11 22:52:55;;;;;;;4.83;3.20;;;;;;;20.67;49.63;99874.66;30855937;28;96697;-68
2023/07/11 23:07:55;;;;;;;4.57;2.83;;;;;;;20.21;50.60;99871.97;30870288;28;97392;-68
2023/07/11 23:22:56;;;;;;;6.57;3.43;;;;;;;19.92;51.45;99875.47;30868222;28;97073;-68
2023/07/11 23:37:57;;;;;;;4.50;2.88;;;;;;;19.83;51.68;99860.69;30867369;28;97307;-68
2023/07/11 23:52:58;;;;;;;5.53;2.80;;;;;;;19.91;52.14;99854.91;30866463;28;97529;-68
